createdAt,value
2022-09-15T00:00:02.925Z,2.40
2022-09-15T00:02:33.168Z,2.80
2022-09-15T00:05:03.454Z,2.10
2022-09-15T00:07:33.852Z,2.60
2022-09-15T00:10:04.418Z,2.30
2022-09-15T00:12:35.066Z,2.40
2022-09-15T00:15:06.632Z,2.60
2022-09-15T00:17:37.055Z,2.80
2022-09-15T00:20:09.224Z,2.70
2022-09-15T00:22:39.466Z,2.60
2022-09-15T00:25:09.914Z,3.10
2022-09-15T00:27:40.106Z,3.10
2022-09-15T00:30:11.809Z,3.10
2022-09-15T00:32:41.941Z,3.40
2022-09-15T00:35:12.322Z,3.20
2022-09-15T00:37:42.551Z,2.60
2022-09-15T00:40:13.300Z,3.30
2022-09-15T00:42:43.474Z,2.70
2022-09-15T00:45:18.167Z,3.10
2022-09-15T00:47:48.424Z,2.90
2022-09-15T00:50:21.612Z,3.10
2022-09-15T00:52:55.927Z,3.00
2022-09-15T00:55:31.575Z,2.90
2022-09-15T00:58:06.666Z,2.90
2022-09-15T01:00:37.387Z,3.30
2022-09-15T01:03:07.871Z,2.70
2022-09-15T01:05:41.554Z,3.30
2022-09-15T01:08:17.610Z,3.00
2022-09-15T01:10:47.755Z,3.20
2022-09-15T01:13:17.993Z,3.40
2022-09-15T01:15:56.165Z,3.10
2022-09-15T01:18:34.195Z,3.30
2022-09-15T01:21:18.071Z,3.00
2022-09-15T01:24:20.897Z,2.90
2022-09-15T01:27:13.660Z,2.80
2022-09-15T01:30:00.979Z,3.00
2022-09-15T01:32:55.150Z,3.70
2022-09-15T01:35:33.774Z,3.00
2022-09-15T01:38:10.112Z,3.20
2022-09-15T01:40:48.151Z,3.20
2022-09-15T01:43:21.015Z,3.50
2022-09-15T01:45:52.456Z,3.50
2022-09-15T01:48:25.722Z,3.40
2022-09-15T01:51:00.517Z,3.10
2022-09-15T01:53:31.295Z,3.50
2022-09-15T01:56:05.960Z,3.00
2022-09-15T01:58:38.267Z,3.30
2022-09-15T02:01:14.381Z,3.50
2022-09-15T02:03:50.320Z,3.50
2022-09-15T02:06:37.344Z,3.90
2022-09-15T02:09:13.759Z,3.40
2022-09-15T02:11:57.186Z,3.10
2022-09-15T02:14:43.113Z,3.50
2022-09-15T02:17:17.335Z,3.90
2022-09-15T02:19:50.789Z,3.00
2022-09-15T02:22:27.964Z,3.20
2022-09-15T02:25:05.815Z,3.40
2022-09-15T02:30:12.824Z,3.00
2022-09-15T02:32:48.393Z,3.70
2022-09-15T02:35:19.659Z,4.00
2022-09-15T02:37:51.289Z,3.90
2022-09-15T02:40:21.826Z,3.80
2022-09-15T02:43:01.044Z,4.20
2022-09-15T02:45:32.745Z,3.90
2022-09-15T02:48:03.247Z,3.80
2022-09-15T02:50:33.631Z,3.80
2022-09-15T02:53:03.768Z,4.30
2022-09-15T02:55:33.907Z,4.50
2022-09-15T02:58:04.285Z,4.40
2022-09-15T03:00:35.082Z,4.90
2022-09-15T03:03:05.267Z,4.40
2022-09-15T03:05:35.353Z,4.40
2022-09-15T03:08:05.980Z,4.70
2022-09-15T03:10:36.718Z,4.90
2022-09-15T03:13:07.648Z,4.90
2022-09-15T03:15:39.305Z,4.70
2022-09-15T03:18:09.470Z,4.90
2022-09-15T03:20:39.783Z,4.90
2022-09-15T03:23:09.920Z,5.90
2022-09-15T03:25:40.028Z,5.40
2022-09-15T03:28:11.049Z,6.00
2022-09-15T03:30:42.374Z,5.60
2022-09-15T03:33:12.525Z,5.60
2022-09-15T03:35:42.673Z,5.50
2022-09-15T03:38:12.810Z,6.60
2022-09-15T03:40:43.945Z,6.20
2022-09-15T03:43:18.643Z,5.90
2022-09-15T03:45:49.007Z,6.30
2022-09-15T03:48:19.263Z,6.00
2022-09-15T03:50:49.413Z,6.50
2022-09-15T03:53:20.439Z,6.50
2022-09-15T03:55:50.646Z,6.00
2022-09-15T03:58:21.189Z,6.50
2022-09-15T04:00:51.769Z,11.90
2022-09-15T04:03:21.984Z,8.10
2022-09-15T04:05:52.065Z,6.90
2022-09-15T04:08:22.658Z,6.30
2022-09-15T04:10:54.769Z,7.00
2022-09-15T04:13:28.551Z,6.50
2022-09-15T04:16:02.724Z,6.10
2022-09-15T04:18:33.786Z,7.00
2022-09-15T04:21:06.265Z,10.50
2022-09-15T04:23:37.270Z,8.70
2022-09-15T04:26:09.726Z,7.10
2022-09-15T04:28:40.718Z,7.70
2022-09-15T04:31:13.550Z,7.20
2022-09-15T04:33:45.237Z,6.10
2022-09-15T04:36:17.254Z,7.20
2022-09-15T04:38:47.955Z,7.60
2022-09-15T04:41:19.025Z,16.70
2022-09-15T04:43:49.753Z,12.80
2022-09-15T04:46:21.149Z,6.50
2022-09-15T04:48:51.889Z,6.20
2022-09-15T04:51:23.828Z,6.80
2022-09-15T04:53:54.512Z,7.50
2022-09-15T04:56:26.418Z,10.40
2022-09-15T04:59:03.476Z,8.00
2022-09-15T05:01:36.220Z,6.10
2022-09-15T05:04:06.928Z,6.30
2022-09-15T05:06:38.234Z,6.70
2022-09-15T05:09:10.635Z,6.40
2022-09-15T05:11:41.443Z,6.70
2022-09-15T05:14:12.478Z,6.40
2022-09-15T05:16:43.022Z,6.20
2022-09-15T05:19:13.350Z,6.50
2022-09-15T05:21:43.565Z,6.80
2022-09-15T05:24:14.340Z,6.10
2022-09-15T05:26:44.460Z,5.60
2022-09-15T05:29:14.722Z,6.10
2022-09-15T05:31:44.892Z,5.90
2022-09-15T05:34:15.324Z,6.30
2022-09-15T05:36:45.423Z,6.30
2022-09-15T05:39:15.846Z,5.80
2022-09-15T05:41:46.275Z,5.80
2022-09-15T05:44:16.434Z,5.60
2022-09-15T05:46:46.563Z,5.30
2022-09-15T05:49:16.740Z,4.60
2022-09-15T05:51:46.943Z,5.70
2022-09-15T05:54:17.196Z,5.40
2022-09-15T05:56:47.317Z,4.50
2022-09-15T05:59:17.543Z,4.40
2022-09-15T06:01:48.078Z,5.20
2022-09-15T06:04:18.534Z,4.80
2022-09-15T06:06:48.719Z,5.20
2022-09-15T06:09:18.914Z,4.60
2022-09-15T06:11:49.098Z,5.00
2022-09-15T06:14:19.254Z,3.80
2022-09-15T06:16:49.688Z,4.50
2022-09-15T06:19:19.873Z,4.70
2022-09-15T06:21:50.074Z,4.90
2022-09-15T06:24:20.569Z,4.20
2022-09-15T06:26:50.702Z,3.90
2022-09-15T06:29:20.918Z,5.00
2022-09-15T06:31:51.138Z,3.60
2022-09-15T06:34:21.522Z,4.00
2022-09-15T06:36:51.656Z,3.00
2022-09-15T06:39:21.737Z,3.90
2022-09-15T06:42:02.311Z,3.50
2022-09-15T06:44:33.352Z,3.30
2022-09-15T06:47:04.057Z,3.30
2022-09-15T06:49:34.220Z,3.70
2022-09-15T06:52:05.134Z,3.80
2022-09-15T06:54:35.280Z,3.50
2022-09-15T06:57:06.147Z,3.00
2022-09-15T06:59:36.376Z,3.30
2022-09-15T07:02:06.647Z,3.20
2022-09-15T07:04:37.811Z,3.50
2022-09-15T07:07:08.001Z,3.20
2022-09-15T07:09:41.128Z,2.90
2022-09-15T07:12:11.813Z,2.40
2022-09-15T07:14:42.740Z,2.90
2022-09-15T07:17:12.950Z,2.50
2022-09-15T07:19:43.140Z,2.40
2022-09-15T07:22:13.817Z,3.20
2022-09-15T07:24:44.318Z,2.80
2022-09-15T07:27:14.457Z,1.80
2022-09-15T07:29:44.910Z,2.50
2022-09-15T07:32:15.343Z,2.50
2022-09-15T07:34:45.842Z,2.20
2022-09-15T07:37:16.442Z,2.10
2022-09-15T07:39:46.963Z,2.50
2022-09-15T07:42:17.162Z,2.50
2022-09-15T07:44:47.347Z,2.90
2022-09-15T07:47:17.487Z,2.50
2022-09-15T07:49:47.621Z,2.40
2022-09-15T07:52:17.862Z,3.00
2022-09-15T07:54:47.953Z,2.40
2022-09-15T07:57:18.120Z,2.20
2022-09-15T07:59:48.750Z,2.40
2022-09-15T08:02:21.073Z,2.80
2022-09-15T08:04:51.352Z,3.30
2022-09-15T08:07:21.551Z,2.30
2022-09-15T08:09:51.805Z,2.20
2022-09-15T08:12:21.918Z,2.40
2022-09-15T08:14:52.092Z,2.40
2022-09-15T08:17:22.199Z,2.20
2022-09-15T08:19:52.717Z,2.10
2022-09-15T08:22:22.865Z,2.10
2022-09-15T08:24:53.045Z,2.10
2022-09-15T08:27:23.196Z,2.70
2022-09-15T08:29:53.489Z,2.30
2022-09-15T08:32:23.597Z,2.60
2022-09-15T08:34:54.054Z,2.40
2022-09-15T08:37:24.272Z,1.90
2022-09-15T08:39:54.461Z,1.80
2022-09-15T08:42:26.894Z,1.90
2022-09-15T08:45:02.406Z,1.70
2022-09-15T08:47:37.762Z,1.80
2022-09-15T08:50:15.519Z,1.50
2022-09-15T08:52:51.468Z,2.00
2022-09-15T08:55:38.469Z,1.80
2022-09-15T08:58:10.642Z,1.80
2022-09-15T09:00:43.061Z,1.70
2022-09-15T09:03:30.741Z,1.60
2022-09-15T09:06:10.406Z,1.30
2022-09-15T09:09:04.394Z,1.60
2022-09-15T09:11:48.642Z,1.90
2022-09-15T09:14:32.150Z,1.80
2022-09-15T09:17:16.550Z,1.50
2022-09-15T09:20:16.696Z,1.50
2022-09-15T09:22:49.896Z,1.10
2022-09-15T09:25:27.691Z,1.10
2022-09-15T09:27:59.370Z,1.20
2022-09-15T09:30:33.996Z,1.00
2022-09-15T09:33:16.720Z,1.20
2022-09-15T09:35:49.777Z,1.30
2022-09-15T09:38:26.059Z,1.20
2022-09-15T09:41:01.405Z,0.70
2022-09-15T09:43:33.725Z,0.90
2022-09-15T09:46:05.393Z,1.10
2022-09-15T09:48:37.205Z,0.90
2022-09-15T09:51:32.200Z,1.00
2022-09-15T09:54:12.025Z,1.10
2022-09-15T09:56:42.166Z,1.10
2022-09-15T09:59:35.505Z,1.00
2022-09-15T10:02:16.614Z,0.90
2022-09-15T10:04:48.092Z,0.90
2022-09-15T10:07:21.068Z,1.40
2022-09-15T10:09:54.427Z,1.00
2022-09-15T10:12:41.470Z,0.80
2022-09-15T10:15:24.504Z,0.70
2022-09-15T10:17:56.757Z,0.90
2022-09-15T10:20:32.756Z,0.80
2022-09-15T10:23:23.222Z,1.20
2022-09-15T10:25:59.639Z,0.90
2022-09-15T10:28:30.645Z,0.90
2022-09-15T10:31:07.016Z,0.90
2022-09-15T10:33:38.953Z,1.00
2022-09-15T10:36:14.173Z,1.10
2022-09-15T10:38:47.595Z,1.00
2022-09-15T10:41:26.335Z,0.90
2022-09-15T10:44:13.749Z,1.00
2022-09-15T10:49:26.338Z,1.10
2022-09-15T10:52:07.693Z,1.20
2022-09-15T10:54:55.085Z,1.10
2022-09-15T11:00:07.344Z,0.90
2022-09-15T11:02:56.144Z,1.00
2022-09-15T11:05:49.602Z,1.10
2022-09-15T11:08:36.239Z,0.90
2022-09-15T11:11:15.573Z,1.00
2022-09-15T11:13:58.642Z,1.10
2022-09-15T11:16:41.171Z,1.00
2022-09-15T11:19:23.937Z,0.80
2022-09-15T11:21:57.048Z,1.70
2022-09-15T11:24:35.877Z,1.10
2022-09-15T11:27:13.862Z,0.90
2022-09-15T11:30:01.135Z,0.90
2022-09-15T11:32:36.189Z,0.60
2022-09-15T11:35:29.201Z,1.00
2022-09-15T11:38:07.263Z,0.90
2022-09-15T11:40:47.516Z,0.90
2022-09-15T11:45:52.474Z,1.10
2022-09-15T11:48:29.287Z,0.80
2022-09-15T11:51:03.214Z,0.80
2022-09-15T11:53:39.128Z,1.10
2022-09-15T11:56:19.489Z,1.10
2022-09-15T11:59:08.329Z,1.10
2022-09-15T12:01:48.682Z,1.10
2022-09-15T12:04:24.542Z,0.90
2022-09-15T12:07:01.099Z,1.00
2022-09-15T12:09:31.464Z,0.90
2022-09-15T12:12:07.475Z,0.90
2022-09-15T12:14:40.391Z,0.60
2022-09-15T12:17:18.546Z,0.80
2022-09-15T12:19:57.298Z,1.00
2022-09-15T12:22:34.143Z,0.90
2022-09-15T12:25:12.846Z,0.90
2022-09-15T12:27:42.978Z,0.70
2022-09-15T12:30:42.022Z,0.80
2022-09-15T12:33:45.792Z,0.90
2022-09-15T12:36:39.055Z,0.80
2022-09-15T12:39:29.392Z,1.00
2022-09-15T12:42:14.706Z,0.80
2022-09-15T12:44:48.658Z,0.90
2022-09-15T12:47:28.384Z,0.90
2022-09-15T12:50:03.392Z,1.10
2022-09-15T12:52:42.484Z,1.00
2022-09-15T12:55:21.162Z,0.80
2022-09-15T12:57:58.047Z,1.10
2022-09-15T13:00:34.798Z,1.00
2022-09-15T13:03:06.086Z,0.80
2022-09-15T13:06:17.135Z,0.70
2022-09-15T13:09:27.563Z,1.10
2022-09-15T13:11:59.128Z,1.00
2022-09-15T13:14:39.291Z,0.70
2022-09-15T13:17:16.494Z,1.10
2022-09-15T13:19:51.639Z,0.90
2022-09-15T13:22:30.067Z,0.90
2022-09-15T13:25:03.899Z,1.10
2022-09-15T13:27:39.590Z,1.20
2022-09-15T13:30:30.301Z,1.10
2022-09-15T13:33:07.809Z,1.00
2022-09-15T13:36:04.642Z,0.60
2022-09-15T13:38:53.880Z,0.90
2022-09-15T13:41:55.000Z,0.70
2022-09-15T13:44:42.543Z,1.00
2022-09-15T13:47:27.481Z,0.80
2022-09-15T13:50:14.681Z,0.80
2022-09-15T13:53:15.390Z,0.60
2022-09-15T13:55:46.568Z,0.90
2022-09-15T14:01:12.994Z,0.70
2022-09-15T14:03:46.736Z,0.60
2022-09-15T14:06:21.673Z,0.90
2022-09-15T14:08:54.902Z,0.80
2022-09-15T14:11:30.782Z,0.90
2022-09-15T14:14:01.586Z,0.60
2022-09-15T14:16:37.241Z,0.70
2022-09-15T14:19:33.334Z,1.20
2022-09-15T14:22:19.278Z,0.70
2022-09-15T14:24:51.598Z,0.50
2022-09-15T14:27:25.538Z,0.50
2022-09-15T14:29:57.757Z,0.50
2022-09-15T14:32:29.686Z,0.70
2022-09-15T14:35:05.454Z,0.60
2022-09-15T14:37:36.508Z,1.00
2022-09-15T14:40:23.453Z,0.60
2022-09-15T14:42:54.080Z,0.70
2022-09-15T14:45:57.698Z,0.90
2022-09-15T14:48:28.269Z,0.80
2022-09-15T14:51:03.701Z,0.70
2022-09-15T14:53:38.360Z,0.40
2022-09-15T14:56:13.855Z,0.60
2022-09-15T14:58:47.866Z,0.70
2022-09-15T15:01:25.002Z,0.60
2022-09-15T15:04:03.228Z,0.70
2022-09-15T15:06:37.316Z,0.80
2022-09-15T15:09:21.404Z,0.60
2022-09-15T15:11:57.718Z,0.50
2022-09-15T15:14:28.755Z,0.70
2022-09-15T15:17:03.798Z,1.00
2022-09-15T15:19:38.027Z,0.90
2022-09-15T15:22:20.911Z,0.80
2022-09-15T15:24:53.667Z,0.80
2022-09-15T15:27:39.678Z,0.70
2022-09-15T15:30:48.371Z,0.70
2022-09-15T15:33:28.967Z,0.70
2022-09-15T15:36:08.247Z,0.90
2022-09-15T15:38:46.400Z,0.70
2022-09-15T15:41:23.973Z,0.80
2022-09-15T15:44:26.685Z,1.00
2022-09-15T15:46:58.441Z,0.70
2022-09-15T15:49:30.827Z,0.60
2022-09-15T15:52:02.550Z,0.80
2022-09-15T15:54:36.650Z,0.90
2022-09-15T15:57:23.331Z,0.90
2022-09-15T15:59:58.353Z,0.60
2022-09-15T16:02:29.300Z,0.60
2022-09-15T16:04:59.943Z,0.70
2022-09-15T16:07:33.427Z,0.80
2022-09-15T16:10:04.429Z,0.50
2022-09-15T16:12:35.453Z,0.60
2022-09-15T16:15:13.509Z,0.90
2022-09-15T16:17:46.721Z,0.80
2022-09-15T16:20:19.685Z,0.70
2022-09-15T16:22:50.411Z,0.50
2022-09-15T16:25:28.618Z,0.60
2022-09-15T16:27:59.907Z,0.50
2022-09-15T16:30:30.298Z,0.60
2022-09-15T16:33:00.778Z,0.60
2022-09-15T16:35:39.245Z,0.60
2022-09-15T16:38:10.275Z,0.80
2022-09-15T16:40:40.413Z,0.80
2022-09-15T16:43:16.071Z,0.80
2022-09-15T16:45:47.036Z,1.10
2022-09-15T16:48:17.832Z,0.70
2022-09-15T16:51:09.019Z,0.90
2022-09-15T16:53:39.933Z,0.60
2022-09-15T16:56:13.056Z,0.90
2022-09-15T16:58:43.897Z,0.70
2022-09-15T17:01:19.737Z,0.70
2022-09-15T17:03:51.505Z,0.80
2022-09-15T17:06:23.960Z,0.90
2022-09-15T17:08:55.776Z,0.80
2022-09-15T17:11:30.491Z,0.70
2022-09-15T17:14:02.448Z,0.80
2022-09-15T17:16:37.094Z,0.90
2022-09-15T17:19:08.274Z,0.70
2022-09-15T17:21:40.045Z,0.70
2022-09-15T17:24:12.738Z,0.70
2022-09-15T17:26:42.984Z,0.90
2022-09-15T17:29:13.473Z,0.90
2022-09-15T17:31:44.242Z,1.20
2022-09-15T17:34:15.865Z,1.10
2022-09-15T17:36:46.450Z,0.90
2022-09-15T17:39:17.041Z,1.10
2022-09-15T17:41:47.179Z,0.90
2022-09-15T17:44:17.582Z,0.70
2022-09-15T17:46:47.849Z,1.50
2022-09-15T17:49:18.575Z,1.10
2022-09-15T17:51:49.054Z,1.20
2022-09-15T17:54:19.651Z,1.10
2022-09-15T17:56:50.005Z,0.90
2022-09-15T17:59:21.163Z,0.70
2022-09-15T18:01:51.885Z,0.90
2022-09-15T18:04:22.374Z,1.10
2022-09-15T18:06:53.880Z,0.80
2022-09-15T18:09:25.247Z,0.90
2022-09-15T18:11:55.770Z,1.00
2022-09-15T18:14:26.678Z,1.10
2022-09-15T18:16:57.493Z,1.10
2022-09-15T18:19:28.068Z,0.80
2022-09-15T18:21:58.675Z,0.90
2022-09-15T18:24:29.987Z,1.10
2022-09-15T18:27:00.948Z,0.90
2022-09-15T18:29:31.209Z,0.90
2022-09-15T18:32:03.123Z,0.90
2022-09-15T18:34:34.080Z,1.10
2022-09-15T18:37:05.013Z,1.00
2022-09-15T18:39:35.819Z,1.20
2022-09-15T18:42:06.245Z,1.30
2022-09-15T18:44:36.795Z,1.10
2022-09-15T18:47:07.860Z,1.40
2022-09-15T18:49:38.352Z,1.10
2022-09-15T18:52:09.559Z,1.40
2022-09-15T18:54:40.189Z,1.00
2022-09-15T18:57:11.226Z,1.10
2022-09-15T18:59:41.975Z,1.00
2022-09-15T19:02:14.586Z,1.00
2022-09-15T19:04:46.324Z,0.90
2022-09-15T19:07:17.327Z,1.40
2022-09-15T19:09:55.770Z,1.10
2022-09-15T19:12:27.167Z,1.00
2022-09-15T19:14:58.298Z,1.40
2022-09-15T19:17:28.526Z,0.90
2022-09-15T19:20:00.604Z,1.10
2022-09-15T19:22:31.551Z,0.80
2022-09-15T19:25:02.718Z,0.90
2022-09-15T19:27:33.643Z,0.80
2022-09-15T19:30:04.113Z,0.90
2022-09-15T19:32:35.604Z,0.70
2022-09-15T19:35:07.680Z,0.80
2022-09-15T19:37:41.530Z,0.80
2022-09-15T19:40:15.211Z,0.70
2022-09-15T19:42:46.302Z,0.70
2022-09-15T19:45:21.149Z,0.60
2022-09-15T19:47:52.693Z,0.80
2022-09-15T19:50:23.472Z,1.00
2022-09-15T19:52:58.850Z,0.60
2022-09-15T19:55:30.889Z,0.90
2022-09-15T19:58:01.890Z,1.10
2022-09-15T20:00:32.714Z,0.90
2022-09-15T20:03:03.711Z,1.10
2022-09-15T20:05:34.091Z,0.90
2022-09-15T20:08:05.173Z,1.00
2022-09-15T20:10:36.008Z,1.10
2022-09-15T20:13:07.396Z,1.10
2022-09-15T20:15:37.968Z,1.00
2022-09-15T20:18:09.134Z,0.90
2022-09-15T20:20:42.245Z,1.00
2022-09-15T20:23:13.308Z,0.80
2022-09-15T20:25:44.340Z,1.00
2022-09-15T20:28:14.974Z,0.90
2022-09-15T20:30:46.213Z,1.10
2022-09-15T20:33:16.723Z,1.20
2022-09-15T20:35:47.210Z,6.10
2022-09-15T20:38:17.761Z,3.30
2022-09-15T20:40:48.413Z,1.80
2022-09-15T20:43:18.659Z,1.30
2022-09-15T20:45:59.672Z,0.90
2022-09-15T20:48:33.017Z,1.00
2022-09-15T20:51:06.012Z,0.80
2022-09-15T20:53:37.510Z,0.90
2022-09-15T20:56:08.431Z,1.50
2022-09-15T20:58:40.032Z,0.90
2022-09-15T21:01:13.798Z,1.00
2022-09-15T21:03:46.586Z,1.10
2022-09-15T21:06:18.864Z,1.10
2022-09-15T21:08:51.321Z,1.00
2022-09-15T21:11:23.360Z,0.90
2022-09-15T21:13:54.393Z,1.20
2022-09-15T21:16:27.116Z,1.10
2022-09-15T21:18:58.985Z,0.80
2022-09-15T21:21:31.540Z,1.00
2022-09-15T21:24:03.934Z,1.20
2022-09-15T21:26:58.021Z,0.80
2022-09-15T21:29:29.466Z,0.90
2022-09-15T21:31:59.971Z,0.90
2022-09-15T21:34:33.211Z,1.00
2022-09-15T21:37:03.334Z,0.80
2022-09-15T21:39:34.578Z,1.00
2022-09-15T21:42:05.322Z,0.80
2022-09-15T21:44:36.785Z,0.90
2022-09-15T21:47:07.651Z,1.00
2022-09-15T21:49:38.196Z,0.90
2022-09-15T21:52:08.950Z,1.00
2022-09-15T21:54:40.053Z,1.30
2022-09-15T21:57:10.342Z,0.80
2022-09-15T21:59:41.772Z,1.30
2022-09-15T22:02:12.441Z,1.10
2022-09-15T22:04:43.047Z,1.10
2022-09-15T22:07:15.372Z,0.90
2022-09-15T22:09:46.578Z,0.90
2022-09-15T22:12:16.768Z,1.30
2022-09-15T22:14:47.729Z,1.10
2022-09-15T22:17:18.314Z,0.70
2022-09-15T22:19:48.827Z,0.80
2022-09-15T22:22:19.004Z,1.00
2022-09-15T22:24:50.348Z,0.90
2022-09-15T22:27:21.098Z,0.90
2022-09-15T22:29:51.902Z,1.10
2022-09-15T22:32:22.258Z,0.90
2022-09-15T22:34:53.361Z,1.00
2022-09-15T22:37:27.701Z,1.00
2022-09-15T22:39:59.520Z,0.90
2022-09-15T22:42:29.950Z,1.00
2022-09-15T22:45:00.653Z,1.10
2022-09-15T22:47:33.906Z,0.70
2022-09-15T22:50:04.944Z,1.00
2022-09-15T22:52:36.403Z,1.00
2022-09-15T22:55:07.609Z,1.10
2022-09-15T22:57:39.592Z,1.00
2022-09-15T23:00:12.789Z,0.90
2022-09-15T23:02:43.003Z,1.10
2022-09-15T23:05:13.476Z,1.20
2022-09-15T23:07:43.798Z,0.90
2022-09-15T23:10:14.347Z,1.20
2022-09-15T23:12:45.179Z,1.10
2022-09-15T23:15:16.422Z,1.50
2022-09-15T23:17:47.390Z,1.40
2022-09-15T23:20:17.944Z,1.10
2022-09-15T23:22:48.411Z,1.30
2022-09-15T23:25:18.689Z,0.70
2022-09-15T23:27:49.081Z,1.10
2022-09-15T23:30:19.284Z,0.90
2022-09-15T23:32:49.789Z,0.90
2022-09-15T23:35:19.904Z,0.90
2022-09-15T23:37:51.014Z,0.90
2022-09-15T23:40:21.536Z,1.00
2022-09-15T23:42:51.719Z,1.10
2022-09-15T23:45:21.844Z,1.40
2022-09-15T23:47:52.362Z,1.10
2022-09-15T23:50:23.277Z,0.90
2022-09-15T23:52:53.383Z,1.10
2022-09-15T23:55:23.976Z,1.00
2022-09-15T23:57:54.632Z,0.70
